Terminal Aerodrome Forecast
Issued by NWS

Home | Current Version | Previous Version | Text Only | Print | Product List | Glossary On
Versions: 1 2 3 4 5 6 7 8 9 10 11 12 13 14 15 16 17
623
FTUS43 KICT 132336
TAFSLN
TAF
KSLN 132336Z 1400/1424 14008KT P6SM SCT100 BKN200
     FM140300 14009KT P6SM BKN040
     FM141100 21005KT P6SM SCT070 BKN150
     FM141500 29009KT P6SM SCT120
     FM141800 33013KT P6SM SCT200=

USA.gov is the U.S. government's official web portal to all federal, state and local government web resources and services.